sensor_id;sensor_type;location;lat;lon;timestamp;P1;durP1;ratioP1;P2;durP2;ratioP2
36827;SDS011;22766;48.042;11.192;2024-03-23T00:56:18;1.60;;;0.70;;
36827;SDS011;22766;48.042;11.192;2024-03-23T00:58:44;2.63;;;0.90;;
36827;SDS011;22766;48.042;11.192;2024-03-23T01:01:10;3.33;;;0.90;;
36827;SDS011;22766;48.042;11.192;2024-03-23T01:03:36;1.08;;;0.73;;
36827;SDS011;22766;48.042;11.192;2024-03-23T01:06:02;1.13;;;0.75;;
36827;SDS011;22766;48.042;11.192;2024-03-23T01:08:29;1.45;;;0.90;;
36827;SDS011;22766;48.042;11.192;2024-03-23T01:10:58;1.67;;;0.70;;
36827;SDS011;22766;48.042;11.192;2024-03-23T01:13:26;0.85;;;0.60;;
36827;SDS011;22766;48.042;11.192;2024-03-23T01:15:52;2.30;;;0.70;;
36827;SDS011;22766;48.042;11.192;2024-03-23T01:18:19;0.98;;;0.60;;
36827;SDS011;22766;48.042;11.192;2024-03-23T01:20:45;1.42;;;0.90;;
36827;SDS011;22766;48.042;11.192;2024-03-23T01:23:11;1.15;;;0.70;;
36827;SDS011;22766;48.042;11.192;2024-03-23T01:25:38;1.90;;;0.80;;
36827;SDS011;22766;48.042;11.192;2024-03-23T01:28:04;2.00;;;0.60;;
36827;SDS011;22766;48.042;11.192;2024-03-23T01:30:32;2.70;;;0.88;;
36827;SDS011;22766;48.042;11.192;2024-03-23T01:32:58;3.38;;;0.70;;
36827;SDS011;22766;48.042;11.192;2024-03-23T01:35:24;1.65;;;0.80;;
36827;SDS011;22766;48.042;11.192;2024-03-23T01:37:49;2.55;;;1.05;;
36827;SDS011;22766;48.042;11.192;2024-03-23T01:40:16;1.23;;;0.70;;
36827;SDS011;22766;48.042;11.192;2024-03-23T01:42:42;1.55;;;0.70;;
36827;SDS011;22766;48.042;11.192;2024-03-23T01:45:08;1.17;;;0.63;;
36827;SDS011;22766;48.042;11.192;2024-03-23T01:47:35;1.77;;;0.70;;
36827;SDS011;22766;48.042;11.192;2024-03-23T01:50:01;5.00;;;0.80;;
36827;SDS011;22766;48.042;11.192;2024-03-23T01:52:27;2.22;;;0.77;;
36827;SDS011;22766;48.042;11.192;2024-03-23T01:54:53;0.98;;;0.68;;
36827;SDS011;22766;48.042;11.192;2024-03-23T01:57:19;2.17;;;0.75;;
36827;SDS011;22766;48.042;11.192;2024-03-23T01:59:48;3.38;;;0.70;;
36827;SDS011;22766;48.042;11.192;2024-03-23T02:02:23;2.35;;;0.98;;
36827;SDS011;22766;48.042;11.192;2024-03-23T02:04:48;3.45;;;0.90;;
36827;SDS011;22766;48.042;11.192;2024-03-23T02:07:14;1.92;;;0.65;;
36827;SDS011;22766;48.042;11.192;2024-03-23T02:09:40;1.52;;;0.98;;
36827;SDS011;22766;48.042;11.192;2024-03-23T02:12:06;5.00;;;1.00;;
36827;SDS011;22766;48.042;11.192;2024-03-23T02:14:32;1.70;;;0.95;;
36827;SDS011;22766;48.042;11.192;2024-03-23T02:16:58;1.23;;;0.80;;
36827;SDS011;22766;48.042;11.192;2024-03-23T02:19:24;1.63;;;1.05;;
36827;SDS011;22766;48.042;11.192;2024-03-23T02:21:50;1.77;;;0.80;;
36827;SDS011;22766;48.042;11.192;2024-03-23T02:24:15;4.68;;;1.35;;
36827;SDS011;22766;48.042;11.192;2024-03-23T02:26:41;2.35;;;1.10;;
36827;SDS011;22766;48.042;11.192;2024-03-23T02:29:07;2.20;;;0.82;;
36827;SDS011;22766;48.042;11.192;2024-03-23T02:31:35;1.85;;;1.00;;
36827;SDS011;22766;48.042;11.192;2024-03-23T02:34:01;4.40;;;0.80;;
36827;SDS011;22766;48.042;11.192;2024-03-23T02:36:27;2.33;;;0.90;;
36827;SDS011;22766;48.042;11.192;2024-03-23T02:38:53;3.25;;;1.17;;
36827;SDS011;22766;48.042;11.192;2024-03-23T02:41:19;2.72;;;1.00;;
36827;SDS011;22766;48.042;11.192;2024-03-23T02:43:49;1.55;;;0.95;;
36827;SDS011;22766;48.042;11.192;2024-03-23T02:46:17;1.95;;;0.90;;
36827;SDS011;22766;48.042;11.192;2024-03-23T02:48:43;1.70;;;0.77;;
36827;SDS011;22766;48.042;11.192;2024-03-23T02:51:09;3.58;;;1.00;;
36827;SDS011;22766;48.042;11.192;2024-03-23T02:53:34;2.15;;;0.93;;
36827;SDS011;22766;48.042;11.192;2024-03-23T02:56:00;1.45;;;0.93;;
36827;SDS011;22766;48.042;11.192;2024-03-23T02:58:26;3.00;;;1.20;;
36827;SDS011;22766;48.042;11.192;2024-03-23T03:00:52;3.03;;;1.20;;
36827;SDS011;22766;48.042;11.192;2024-03-23T03:03:18;2.33;;;0.80;;
36827;SDS011;22766;48.042;11.192;2024-03-23T03:05:43;2.40;;;1.00;;
36827;SDS011;22766;48.042;11.192;2024-03-23T03:08:09;1.73;;;0.90;;
36827;SDS011;22766;48.042;11.192;2024-03-23T03:10:35;1.38;;;0.90;;
36827;SDS011;22766;48.042;11.192;2024-03-23T03:13:02;2.28;;;0.95;;
36827;SDS011;22766;48.042;11.192;2024-03-23T03:15:28;1.58;;;0.80;;
36827;SDS011;22766;48.042;11.192;2024-03-23T03:17:54;3.20;;;1.10;;
36827;SDS011;22766;48.042;11.192;2024-03-23T03:20:19;1.75;;;1.00;;
36827;SDS011;22766;48.042;11.192;2024-03-23T03:22:47;0.90;;;0.70;;
36827;SDS011;22766;48.042;11.192;2024-03-23T03:25:13;1.33;;;0.80;;
36827;SDS011;22766;48.042;11.192;2024-03-23T03:27:39;2.50;;;1.00;;
36827;SDS011;22766;48.042;11.192;2024-03-23T03:30:05;24.05;;;2.00;;
36827;SDS011;22766;48.042;11.192;2024-03-23T03:32:32;2.17;;;1.27;;
36827;SDS011;22766;48.042;11.192;2024-03-23T03:34:58;3.13;;;0.90;;
36827;SDS011;22766;48.042;11.192;2024-03-23T03:37:24;1.85;;;1.02;;
36827;SDS011;22766;48.042;11.192;2024-03-23T03:39:50;2.13;;;0.98;;
36827;SDS011;22766;48.042;11.192;2024-03-23T03:42:16;1.27;;;0.95;;
36827;SDS011;22766;48.042;11.192;2024-03-23T03:44:42;2.28;;;1.10;;
36827;SDS011;22766;48.042;11.192;2024-03-23T03:47:07;1.23;;;0.75;;
36827;SDS011;22766;48.042;11.192;2024-03-23T03:49:33;1.92;;;1.00;;
36827;SDS011;22766;48.042;11.192;2024-03-23T03:51:59;3.05;;;1.00;;
36827;SDS011;22766;48.042;11.192;2024-03-23T03:54:26;1.95;;;1.00;;
36827;SDS011;22766;48.042;11.192;2024-03-23T03:56:52;2.15;;;1.20;;
36827;SDS011;22766;48.042;11.192;2024-03-23T03:59:18;3.13;;;0.85;;
36827;SDS011;22766;48.042;11.192;2024-03-23T04:01:45;3.60;;;1.10;;
36827;SDS011;22766;48.042;11.192;2024-03-23T04:04:11;2.17;;;0.80;;
36827;SDS011;22766;48.042;11.192;2024-03-23T04:06:37;2.70;;;0.80;;
36827;SDS011;22766;48.042;11.192;2024-03-23T04:09:03;1.60;;;0.90;;
36827;SDS011;22766;48.042;11.192;2024-03-23T04:11:29;3.35;;;1.00;;
36827;SDS011;22766;48.042;11.192;2024-03-23T04:13:55;1.27;;;1.05;;
36827;SDS011;22766;48.042;11.192;2024-03-23T04:16:27;1.15;;;0.68;;
36827;SDS011;22766;48.042;11.192;2024-03-23T04:18:53;1.10;;;0.65;;
36827;SDS011;22766;48.042;11.192;2024-03-23T04:21:20;0.75;;;0.63;;
36827;SDS011;22766;48.042;11.192;2024-03-23T04:23:47;2.47;;;0.60;;
36827;SDS011;22766;48.042;11.192;2024-03-23T04:26:12;0.77;;;0.60;;
36827;SDS011;22766;48.042;11.192;2024-03-23T04:28:39;1.48;;;0.50;;
36827;SDS011;22766;48.042;11.192;2024-03-23T04:31:04;2.15;;;0.60;;
36827;SDS011;22766;48.042;11.192;2024-03-23T04:33:31;2.25;;;0.80;;
36827;SDS011;22766;48.042;11.192;2024-03-23T04:35:57;0.98;;;0.60;;
36827;SDS011;22766;48.042;11.192;2024-03-23T04:38:22;1.17;;;0.50;;
36827;SDS011;22766;48.042;11.192;2024-03-23T04:40:58;1.42;;;0.45;;
36827;SDS011;22766;48.042;11.192;2024-03-23T04:43:27;1.20;;;0.60;;
36827;SDS011;22766;48.042;11.192;2024-03-23T04:45:53;1.40;;;0.50;;
36827;SDS011;22766;48.042;11.192;2024-03-23T04:48:23;2.17;;;0.70;;
36827;SDS011;22766;48.042;11.192;2024-03-23T04:50:49;1.08;;;0.55;;
36827;SDS011;22766;48.042;11.192;2024-03-23T04:53:19;1.10;;;0.60;;
36827;SDS011;22766;48.042;11.192;2024-03-23T04:55:45;2.38;;;0.85;;
36827;SDS011;22766;48.042;11.192;2024-03-23T04:58:11;1.58;;;0.52;;
36827;SDS011;22766;48.042;11.192;2024-03-23T05:00:36;1.23;;;0.57;;
36827;SDS011;22766;48.042;11.192;2024-03-23T05:03:02;0.98;;;0.50;;
36827;SDS011;22766;48.042;11.192;2024-03-23T05:05:30;2.10;;;0.52;;
36827;SDS011;22766;48.042;11.192;2024-03-23T05:07:55;0.77;;;0.40;;
36827;SDS011;22766;48.042;11.192;2024-03-23T05:10:21;1.23;;;0.40;;
36827;SDS011;22766;48.042;11.192;2024-03-23T05:12:47;2.03;;;0.93;;
36827;SDS011;22766;48.042;11.192;2024-03-23T05:15:13;2.83;;;0.60;;
36827;SDS011;22766;48.042;11.192;2024-03-23T05:17:39;1.38;;;0.60;;
36827;SDS011;22766;48.042;11.192;2024-03-23T05:20:05;0.90;;;0.50;;
36827;SDS011;22766;48.042;11.192;2024-03-23T05:22:35;0.95;;;0.35;;
36827;SDS011;22766;48.042;11.192;2024-03-23T05:25:02;1.30;;;0.90;;
36827;SDS011;22766;48.042;11.192;2024-03-23T05:27:31;0.88;;;0.50;;
36827;SDS011;22766;48.042;11.192;2024-03-23T05:29:58;1.45;;;1.02;;
36827;SDS011;22766;48.042;11.192;2024-03-23T05:32:24;2.47;;;0.63;;
36827;SDS011;22766;48.042;11.192;2024-03-23T05:34:50;1.45;;;0.60;;
36827;SDS011;22766;48.042;11.192;2024-03-23T05:37:21;2.28;;;0.68;;
36827;SDS011;22766;48.042;11.192;2024-03-23T05:39:48;2.25;;;0.70;;
36827;SDS011;22766;48.042;11.192;2024-03-23T05:42:18;2.65;;;0.90;;
36827;SDS011;22766;48.042;11.192;2024-03-23T05:44:44;1.38;;;0.55;;
36827;SDS011;22766;48.042;11.192;2024-03-23T05:47:11;1.77;;;0.70;;
36827;SDS011;22766;48.042;11.192;2024-03-23T05:49:38;1.30;;;0.70;;
36827;SDS011;22766;48.042;11.192;2024-03-23T05:52:04;2.40;;;0.70;;
36827;SDS011;22766;48.042;11.192;2024-03-23T05:54:30;0.90;;;0.47;;
36827;SDS011;22766;48.042;11.192;2024-03-23T05:56:56;1.55;;;0.68;;
36827;SDS011;22766;48.042;11.192;2024-03-23T05:59:22;1.60;;;0.70;;
36827;SDS011;22766;48.042;11.192;2024-03-23T06:01:47;1.40;;;0.70;;
36827;SDS011;22766;48.042;11.192;2024-03-23T06:04:13;0.77;;;0.50;;
36827;SDS011;22766;48.042;11.192;2024-03-23T06:06:39;1.23;;;0.50;;
36827;SDS011;22766;48.042;11.192;2024-03-23T06:09:05;0.68;;;0.50;;
36827;SDS011;22766;48.042;11.192;2024-03-23T06:11:31;2.88;;;0.80;;
36827;SDS011;22766;48.042;11.192;2024-03-23T06:13:57;2.33;;;0.70;;
36827;SDS011;22766;48.042;11.192;2024-03-23T06:16:23;0.57;;;0.57;;
36827;SDS011;22766;48.042;11.192;2024-03-23T06:18:50;2.60;;;0.68;;
36827;SDS011;22766;48.042;11.192;2024-03-23T06:21:16;1.40;;;0.80;;
36827;SDS011;22766;48.042;11.192;2024-03-23T06:23:42;0.73;;;0.55;;
36827;SDS011;22766;48.042;11.192;2024-03-23T06:26:08;1.23;;;0.75;;
36827;SDS011;22766;48.042;11.192;2024-03-23T06:28:34;1.98;;;0.60;;
36827;SDS011;22766;48.042;11.192;2024-03-23T06:31:00;4.35;;;2.20;;
36827;SDS011;22766;48.042;11.192;2024-03-23T06:33:26;4.18;;;2.15;;
36827;SDS011;22766;48.042;11.192;2024-03-23T06:35:52;2.53;;;0.95;;
36827;SDS011;22766;48.042;11.192;2024-03-23T06:38:18;2.45;;;0.60;;
36827;SDS011;22766;48.042;11.192;2024-03-23T06:40:44;3.75;;;1.02;;
36827;SDS011;22766;48.042;11.192;2024-03-23T06:43:14;1.30;;;0.50;;
36827;SDS011;22766;48.042;11.192;2024-03-23T06:45:39;2.33;;;0.63;;
36827;SDS011;22766;48.042;11.192;2024-03-23T06:48:05;1.60;;;0.63;;
36827;SDS011;22766;48.042;11.192;2024-03-23T06:50:33;1.02;;;0.50;;
36827;SDS011;22766;48.042;11.192;2024-03-23T06:52:59;1.35;;;0.60;;
36827;SDS011;22766;48.042;11.192;2024-03-23T06:55:27;1.40;;;0.70;;
36827;SDS011;22766;48.042;11.192;2024-03-23T06:57:53;1.38;;;0.80;;
36827;SDS011;22766;48.042;11.192;2024-03-23T07:00:19;2.88;;;0.60;;
36827;SDS011;22766;48.042;11.192;2024-03-23T07:02:46;1.48;;;0.63;;
36827;SDS011;22766;48.042;11.192;2024-03-23T07:05:12;1.10;;;0.60;;
36827;SDS011;22766;48.042;11.192;2024-03-23T07:07:38;1.63;;;0.80;;
36827;SDS011;22766;48.042;11.192;2024-03-23T07:10:05;1.70;;;0.80;;
36827;SDS011;22766;48.042;11.192;2024-03-23T07:12:31;1.25;;;0.55;;
36827;SDS011;22766;48.042;11.192;2024-03-23T07:14:57;1.33;;;0.60;;
36827;SDS011;22766;48.042;11.192;2024-03-23T07:17:23;3.50;;;0.90;;
36827;SDS011;22766;48.042;11.192;2024-03-23T07:19:49;3.35;;;0.90;;
36827;SDS011;22766;48.042;11.192;2024-03-23T07:22:14;2.90;;;0.80;;
36827;SDS011;22766;48.042;11.192;2024-03-23T07:24:40;2.42;;;0.90;;
36827;SDS011;22766;48.042;11.192;2024-03-23T07:27:06;1.55;;;0.73;;
36827;SDS011;22766;48.042;11.192;2024-03-23T07:29:35;1.45;;;0.77;;
36827;SDS011;22766;48.042;11.192;2024-03-23T07:32:02;1.85;;;1.00;;
36827;SDS011;22766;48.042;11.192;2024-03-23T07:34:28;1.20;;;0.90;;
36827;SDS011;22766;48.042;11.192;2024-03-23T07:36:53;1.70;;;1.10;;
36827;SDS011;22766;48.042;11.192;2024-03-23T07:39:19;4.80;;;1.10;;
36827;SDS011;22766;48.042;11.192;2024-03-23T07:41:45;3.08;;;1.20;;
36827;SDS011;22766;48.042;11.192;2024-03-23T07:44:11;3.35;;;0.93;;
36827;SDS011;22766;48.042;11.192;2024-03-23T07:46:36;1.52;;;0.80;;
36827;SDS011;22766;48.042;11.192;2024-03-23T07:49:03;2.45;;;0.68;;
36827;SDS011;22766;48.042;11.192;2024-03-23T07:51:29;2.85;;;0.93;;
36827;SDS011;22766;48.042;11.192;2024-03-23T07:53:55;2.60;;;0.95;;
36827;SDS011;22766;48.042;11.192;2024-03-23T07:56:21;4.13;;;0.80;;
36827;SDS011;22766;48.042;11.192;2024-03-23T07:58:49;2.05;;;1.25;;
36827;SDS011;22766;48.042;11.192;2024-03-23T08:01:15;1.15;;;0.65;;
36827;SDS011;22766;48.042;11.192;2024-03-23T08:03:42;1.77;;;0.90;;
36827;SDS011;22766;48.042;11.192;2024-03-23T08:06:13;2.45;;;0.70;;
36827;SDS011;22766;48.042;11.192;2024-03-23T08:08:52;1.35;;;0.80;;
36827;SDS011;22766;48.042;11.192;2024-03-23T08:11:25;1.20;;;0.70;;
36827;SDS011;22766;48.042;11.192;2024-03-23T08:13:54;1.58;;;0.88;;
36827;SDS011;22766;48.042;11.192;2024-03-23T08:16:20;1.08;;;0.80;;
36827;SDS011;22766;48.042;11.192;2024-03-23T08:18:47;2.65;;;0.60;;
36827;SDS011;22766;48.042;11.192;2024-03-23T08:21:12;1.95;;;0.82;;
36827;SDS011;22766;48.042;11.192;2024-03-23T08:23:39;1.67;;;0.80;;
36827;SDS011;22766;48.042;11.192;2024-03-23T08:26:09;4.40;;;0.77;;
36827;SDS011;22766;48.042;11.192;2024-03-23T08:28:36;1.70;;;1.20;;
36827;SDS011;22766;48.042;11.192;2024-03-23T08:31:09;1.75;;;0.90;;
36827;SDS011;22766;48.042;11.192;2024-03-23T08:33:36;1.48;;;0.85;;
36827;SDS011;22766;48.042;11.192;2024-03-23T08:36:05;4.82;;;0.82;;
36827;SDS011;22766;48.042;11.192;2024-03-23T08:38:32;3.42;;;0.90;;
36827;SDS011;22766;48.042;11.192;2024-03-23T08:43:32;2.15;;;1.00;;
36827;SDS011;22766;48.042;11.192;2024-03-23T08:48:31;3.33;;;1.10;;
36827;SDS011;22766;48.042;11.192;2024-03-23T08:51:07;3.20;;;1.13;;
36827;SDS011;22766;48.042;11.192;2024-03-23T08:53:34;1.98;;;1.00;;
36827;SDS011;22766;48.042;11.192;2024-03-23T08:56:01;2.47;;;1.40;;
36827;SDS011;22766;48.042;11.192;2024-03-23T08:58:28;2.78;;;1.23;;
36827;SDS011;22766;48.042;11.192;2024-03-23T09:00:56;2.38;;;1.17;;
36827;SDS011;22766;48.042;11.192;2024-03-23T09:03:28;3.63;;;1.67;;
36827;SDS011;22766;48.042;11.192;2024-03-23T09:05:54;1.73;;;0.90;;
36827;SDS011;22766;48.042;11.192;2024-03-23T09:08:21;3.47;;;1.65;;
36827;SDS011;22766;48.042;11.192;2024-03-23T09:10:47;1.75;;;1.08;;
36827;SDS011;22766;48.042;11.192;2024-03-23T09:13:13;4.32;;;1.50;;
36827;SDS011;22766;48.042;11.192;2024-03-23T09:15:46;2.30;;;1.40;;
36827;SDS011;22766;48.042;11.192;2024-03-23T09:18:14;2.45;;;1.33;;
36827;SDS011;22766;48.042;11.192;2024-03-23T09:20:39;2.42;;;1.42;;
36827;SDS011;22766;48.042;11.192;2024-03-23T09:23:05;3.53;;;1.65;;
36827;SDS011;22766;48.042;11.192;2024-03-23T09:25:31;2.78;;;1.08;;
36827;SDS011;22766;48.042;11.192;2024-03-23T09:27:57;1.35;;;0.50;;
36827;SDS011;22766;48.042;11.192;2024-03-23T09:30:24;1.05;;;0.43;;
36827;SDS011;22766;48.042;11.192;2024-03-23T09:32:49;1.27;;;0.45;;
36827;SDS011;22766;48.042;11.192;2024-03-23T09:35:15;0.45;;;0.40;;
36827;SDS011;22766;48.042;11.192;2024-03-23T09:37:41;0.68;;;0.30;;
36827;SDS011;22766;48.042;11.192;2024-03-23T09:40:10;0.47;;;0.38;;
36827;SDS011;22766;48.042;11.192;2024-03-23T09:42:36;0.45;;;0.30;;
36827;SDS011;22766;48.042;11.192;2024-03-23T09:45:06;0.82;;;0.40;;
36827;SDS011;22766;48.042;11.192;2024-03-23T09:47:41;0.98;;;0.30;;
36827;SDS011;22766;48.042;11.192;2024-03-23T09:50:07;0.38;;;0.30;;
36827;SDS011;22766;48.042;11.192;2024-03-23T09:52:34;0.17;;;0.17;;
36827;SDS011;22766;48.042;11.192;2024-03-23T09:55:00;4.70;;;1.08;;
36827;SDS011;22766;48.042;11.192;2024-03-23T09:57:26;0.57;;;0.43;;
36827;SDS011;22766;48.042;11.192;2024-03-23T09:59:52;0.65;;;0.40;;
36827;SDS011;22766;48.042;11.192;2024-03-23T10:02:18;0.68;;;0.30;;
36827;SDS011;22766;48.042;11.192;2024-03-23T10:04:46;0.52;;;0.30;;
36827;SDS011;22766;48.042;11.192;2024-03-23T10:07:12;0.30;;;0.30;;
36827;SDS011;22766;48.042;11.192;2024-03-23T10:09:38;0.30;;;0.20;;
36827;SDS011;22766;48.042;11.192;2024-03-23T10:12:08;0.80;;;0.43;;
36827;SDS011;22766;48.042;11.192;2024-03-23T10:14:36;3.83;;;1.52;;
36827;SDS011;22766;48.042;11.192;2024-03-23T10:17:14;0.77;;;0.50;;
36827;SDS011;22766;48.042;11.192;2024-03-23T10:19:51;0.20;;;0.20;;
36827;SDS011;22766;48.042;11.192;2024-03-23T10:22:21;1.85;;;0.93;;
36827;SDS011;22766;48.042;11.192;2024-03-23T10:24:48;0.73;;;0.50;;
36827;SDS011;22766;48.042;11.192;2024-03-23T10:27:16;2.58;;;0.93;;
36827;SDS011;22766;48.042;11.192;2024-03-23T10:29:43;1.20;;;0.52;;
36827;SDS011;22766;48.042;11.192;2024-03-23T10:34:39;0.50;;;0.45;;
36827;SDS011;22766;48.042;11.192;2024-03-23T10:37:06;1.15;;;0.50;;
36827;SDS011;22766;48.042;11.192;2024-03-23T10:39:33;0.57;;;0.30;;
36827;SDS011;22766;48.042;11.192;2024-03-23T10:42:05;0.68;;;0.40;;
36827;SDS011;22766;48.042;11.192;2024-03-23T10:44:31;0.77;;;0.40;;
36827;SDS011;22766;48.042;11.192;2024-03-23T10:46:58;0.98;;;0.80;;
36827;SDS011;22766;48.042;11.192;2024-03-23T10:49:25;1.88;;;0.60;;
36827;SDS011;22766;48.042;11.192;2024-03-23T10:51:53;0.40;;;0.30;;
36827;SDS011;22766;48.042;11.192;2024-03-23T10:54:19;0.70;;;0.35;;
36827;SDS011;22766;48.042;11.192;2024-03-23T10:56:45;0.77;;;0.40;;
36827;SDS011;22766;48.042;11.192;2024-03-23T10:59:13;0.98;;;0.40;;
36827;SDS011;22766;48.042;11.192;2024-03-23T11:01:53;2.65;;;0.50;;
36827;SDS011;22766;48.042;11.192;2024-03-23T11:04:35;0.98;;;0.50;;
36827;SDS011;22766;48.042;11.192;2024-03-23T11:07:48;0.68;;;0.40;;
36827;SDS011;22766;48.042;11.192;2024-03-23T11:09:56;0.80;;;0.40;;
36827;SDS011;22766;48.042;11.192;2024-03-23T11:15:11;1.63;;;0.70;;
36827;SDS011;22766;48.042;11.192;2024-03-23T11:17:37;1.92;;;0.63;;
36827;SDS011;22766;48.042;11.192;2024-03-23T11:20:04;2.13;;;0.60;;
36827;SDS011;22766;48.042;11.192;2024-03-23T11:22:42;4.20;;;1.00;;
36827;SDS011;22766;48.042;11.192;2024-03-23T11:27:45;1.20;;;0.40;;
36827;SDS011;22766;48.042;11.192;2024-03-23T11:32:37;0.80;;;0.60;;
36827;SDS011;22766;48.042;11.192;2024-03-23T11:35:02;1.30;;;0.55;;
36827;SDS011;22766;48.042;11.192;2024-03-23T11:37:28;1.33;;;0.68;;
36827;SDS011;22766;48.042;11.192;2024-03-23T11:39:54;1.05;;;0.60;;
36827;SDS011;22766;48.042;11.192;2024-03-23T11:42:21;0.90;;;0.68;;
36827;SDS011;22766;48.042;11.192;2024-03-23T11:44:47;1.23;;;0.60;;
36827;SDS011;22766;48.042;11.192;2024-03-23T11:47:13;1.77;;;0.60;;
36827;SDS011;22766;48.042;11.192;2024-03-23T11:49:39;1.48;;;0.70;;
36827;SDS011;22766;48.042;11.192;2024-03-23T11:52:06;2.45;;;0.47;;
36827;SDS011;22766;48.042;11.192;2024-03-23T11:54:32;1.27;;;0.50;;
36827;SDS011;22766;48.042;11.192;2024-03-23T11:57:03;2.08;;;0.63;;
36827;SDS011;22766;48.042;11.192;2024-03-23T11:59:34;1.27;;;0.80;;
36827;SDS011;22766;48.042;11.192;2024-03-23T12:02:00;6.20;;;0.80;;
36827;SDS011;22766;48.042;11.192;2024-03-23T12:04:31;0.87;;;0.70;;
36827;SDS011;22766;48.042;11.192;2024-03-23T12:10:04;1.40;;;0.60;;
36827;SDS011;22766;48.042;11.192;2024-03-23T12:12:31;1.23;;;0.70;;
36827;SDS011;22766;48.042;11.192;2024-03-23T12:15:01;1.23;;;0.60;;
36827;SDS011;22766;48.042;11.192;2024-03-23T12:17:36;1.63;;;0.77;;
36827;SDS011;22766;48.042;11.192;2024-03-23T12:20:02;0.95;;;0.70;;
36827;SDS011;22766;48.042;11.192;2024-03-23T12:22:28;3.20;;;1.15;;
36827;SDS011;22766;48.042;11.192;2024-03-23T12:24:55;1.88;;;0.85;;
36827;SDS011;22766;48.042;11.192;2024-03-23T12:27:21;3.65;;;0.93;;
36827;SDS011;22766;48.042;11.192;2024-03-23T12:29:48;3.47;;;0.98;;
36827;SDS011;22766;48.042;11.192;2024-03-23T12:32:14;3.00;;;0.95;;
36827;SDS011;22766;48.042;11.192;2024-03-23T12:34:40;3.53;;;0.82;;
36827;SDS011;22766;48.042;11.192;2024-03-23T12:37:07;1.13;;;0.93;;
36827;SDS011;22766;48.042;11.192;2024-03-23T12:39:33;3.08;;;1.02;;
36827;SDS011;22766;48.042;11.192;2024-03-23T12:42:00;8.88;;;3.97;;
36827;SDS011;22766;48.042;11.192;2024-03-23T12:44:28;26.63;;;10.27;;
36827;SDS011;22766;48.042;11.192;2024-03-23T12:46:54;11.05;;;6.82;;
36827;SDS011;22766;48.042;11.192;2024-03-23T12:49:20;8.43;;;3.10;;
36827;SDS011;22766;48.042;11.192;2024-03-23T12:52:04;5.78;;;2.03;;
36827;SDS011;22766;48.042;11.192;2024-03-23T12:54:33;4.65;;;1.98;;
36827;SDS011;22766;48.042;11.192;2024-03-23T12:56:59;4.55;;;2.72;;
36827;SDS011;22766;48.042;11.192;2024-03-23T12:59:25;4.63;;;2.30;;
36827;SDS011;22766;48.042;11.192;2024-03-23T13:01:53;2.13;;;1.40;;
36827;SDS011;22766;48.042;11.192;2024-03-23T13:04:20;4.20;;;0.90;;
36827;SDS011;22766;48.042;11.192;2024-03-23T13:06:46;3.00;;;0.80;;
36827;SDS011;22766;48.042;11.192;2024-03-23T13:09:12;1.83;;;0.95;;
36827;SDS011;22766;48.042;11.192;2024-03-23T13:11:38;4.68;;;1.05;;
36827;SDS011;22766;48.042;11.192;2024-03-23T13:14:03;1.70;;;1.00;;
36827;SDS011;22766;48.042;11.192;2024-03-23T13:16:29;3.28;;;0.95;;
36827;SDS011;22766;48.042;11.192;2024-03-23T13:18:55;3.33;;;1.35;;
36827;SDS011;22766;48.042;11.192;2024-03-23T13:21:21;2.58;;;1.25;;
36827;SDS011;22766;48.042;11.192;2024-03-23T13:23:47;1.50;;;0.80;;
36827;SDS011;22766;48.042;11.192;2024-03-23T13:26:15;6.30;;;1.10;;
36827;SDS011;22766;48.042;11.192;2024-03-23T13:28:41;3.35;;;1.02;;
36827;SDS011;22766;48.042;11.192;2024-03-23T13:31:07;1.85;;;0.85;;
36827;SDS011;22766;48.042;11.192;2024-03-23T13:33:33;2.05;;;0.80;;
36827;SDS011;22766;48.042;11.192;2024-03-23T13:35:59;3.30;;;0.98;;
36827;SDS011;22766;48.042;11.192;2024-03-23T13:38:25;1.35;;;0.70;;
36827;SDS011;22766;48.042;11.192;2024-03-23T13:43:24;3.20;;;0.88;;
36827;SDS011;22766;48.042;11.192;2024-03-23T13:45:55;3.25;;;0.80;;
36827;SDS011;22766;48.042;11.192;2024-03-23T13:48:23;2.00;;;0.80;;
36827;SDS011;22766;48.042;11.192;2024-03-23T13:53:24;2.90;;;0.63;;
36827;SDS011;22766;48.042;11.192;2024-03-23T13:55:50;3.92;;;0.75;;
36827;SDS011;22766;48.042;11.192;2024-03-23T13:58:16;2.30;;;0.70;;
36827;SDS011;22766;48.042;11.192;2024-03-23T14:00:42;2.97;;;0.77;;
36827;SDS011;22766;48.042;11.192;2024-03-23T14:03:09;1.30;;;0.57;;
36827;SDS011;22766;48.042;11.192;2024-03-23T14:05:35;3.28;;;0.80;;
36827;SDS011;22766;48.042;11.192;2024-03-23T14:08:01;1.25;;;1.05;;
36827;SDS011;22766;48.042;11.192;2024-03-23T14:10:27;2.78;;;0.85;;
36827;SDS011;22766;48.042;11.192;2024-03-23T14:12:53;3.00;;;0.73;;
36827;SDS011;22766;48.042;11.192;2024-03-23T14:15:19;3.13;;;1.00;;
36827;SDS011;22766;48.042;11.192;2024-03-23T14:17:45;1.63;;;0.80;;
36827;SDS011;22766;48.042;11.192;2024-03-23T14:20:11;5.38;;;1.08;;
36827;SDS011;22766;48.042;11.192;2024-03-23T14:22:38;4.32;;;2.28;;
36827;SDS011;22766;48.042;11.192;2024-03-23T14:25:06;4.18;;;0.85;;
36827;SDS011;22766;48.042;11.192;2024-03-23T14:27:32;2.67;;;1.00;;
36827;SDS011;22766;48.042;11.192;2024-03-23T14:30:06;4.18;;;1.50;;
36827;SDS011;22766;48.042;11.192;2024-03-23T14:32:33;3.60;;;1.30;;
36827;SDS011;22766;48.042;11.192;2024-03-23T14:35:03;5.38;;;0.98;;
36827;SDS011;22766;48.042;11.192;2024-03-23T14:37:34;5.47;;;1.15;;
36827;SDS011;22766;48.042;11.192;2024-03-23T14:39:59;4.05;;;1.23;;
36827;SDS011;22766;48.042;11.192;2024-03-23T14:42:25;7.55;;;2.25;;
36827;SDS011;22766;48.042;11.192;2024-03-23T14:44:51;3.17;;;1.10;;
36827;SDS011;22766;48.042;11.192;2024-03-23T14:47:18;4.97;;;1.40;;
36827;SDS011;22766;48.042;11.192;2024-03-23T14:49:44;1.75;;;1.20;;
36827;SDS011;22766;48.042;11.192;2024-03-23T14:52:16;4.60;;;0.80;;
36827;SDS011;22766;48.042;11.192;2024-03-23T14:54:42;3.28;;;1.17;;
36827;SDS011;22766;48.042;11.192;2024-03-23T14:57:08;2.75;;;1.27;;
36827;SDS011;22766;48.042;11.192;2024-03-23T14:59:36;3.25;;;1.48;;
36827;SDS011;22766;48.042;11.192;2024-03-23T15:02:06;3.50;;;1.50;;
36827;SDS011;22766;48.042;11.192;2024-03-23T15:04:32;2.00;;;1.17;;
36827;SDS011;22766;48.042;11.192;2024-03-23T15:06:58;5.45;;;1.50;;
36827;SDS011;22766;48.042;11.192;2024-03-23T15:09:24;2.90;;;1.40;;
36827;SDS011;22766;48.042;11.192;2024-03-23T15:11:50;3.65;;;1.38;;
36827;SDS011;22766;48.042;11.192;2024-03-23T15:14:16;3.53;;;1.83;;
36827;SDS011;22766;48.042;11.192;2024-03-23T15:16:42;4.43;;;1.10;;
36827;SDS011;22766;48.042;11.192;2024-03-23T15:19:08;3.35;;;1.35;;
36827;SDS011;22766;48.042;11.192;2024-03-23T15:21:35;2.28;;;1.25;;
36827;SDS011;22766;48.042;11.192;2024-03-23T15:24:00;3.75;;;1.27;;
36827;SDS011;22766;48.042;11.192;2024-03-23T15:26:26;4.63;;;1.13;;
36827;SDS011;22766;48.042;11.192;2024-03-23T15:28:52;2.63;;;1.10;;
36827;SDS011;22766;48.042;11.192;2024-03-23T15:33:50;4.68;;;1.17;;
36827;SDS011;22766;48.042;11.192;2024-03-23T15:36:16;4.95;;;1.75;;
36827;SDS011;22766;48.042;11.192;2024-03-23T15:38:42;5.55;;;1.38;;
36827;SDS011;22766;48.042;11.192;2024-03-23T15:41:09;2.83;;;1.13;;
36827;SDS011;22766;48.042;11.192;2024-03-23T15:43:35;2.35;;;1.20;;
36827;SDS011;22766;48.042;11.192;2024-03-23T15:46:02;3.75;;;1.60;;
36827;SDS011;22766;48.042;11.192;2024-03-23T15:48:29;3.95;;;1.52;;
36827;SDS011;22766;48.042;11.192;2024-03-23T15:50:56;2.95;;;1.20;;
36827;SDS011;22766;48.042;11.192;2024-03-23T15:53:22;2.25;;;1.30;;